Time;durP1;ratioP1;P1;durP2;ratioP2;P2;SDS_P1;SDS_P2;PMS_P1;PMS_P2;Temp;Humidity;BMP_temperature;BMP_pressure;BME280_temperature;BME280_humidity;BME280_pressure;Samples;Min_cycle;Max_cycle;Signal;HPM_P1;HPM_P2
2022/01/08 00:00:57;;;;;;;1.90;1.60;;;0.70;99.90;;;;;;5034925;28;20136;-80
2022/01/08 00:03:22;;;;;;;1.38;1.27;;;0.70;99.90;;;;;;5049081;28;20401;-78
2022/01/08 00:05:48;;;;;;;2.75;1.45;;;0.70;99.90;;;;;;5049009;28;20613;-78
2022/01/08 00:08:15;;;;;;;0.90;0.90;;;0.70;99.90;;;;;;5045292;28;20164;-79
2022/01/08 00:10:42;;;;;;;0.93;0.88;;;0.70;99.90;;;;;;5045521;28;20053;-80
2022/01/08 00:13:08;;;;;;;1.13;1.00;;;0.80;99.90;;;;;;5047545;28;20536;-80
2022/01/08 00:15:35;;;;;;;2.88;1.35;;;0.80;99.90;;;;;;5047043;28;20045;-79
2022/01/08 00:18:01;;;;;;;1.10;1.00;;;0.80;99.90;;;;;;5029116;28;20041;-80
2022/01/08 00:20:30;;;;;;;1.45;1.35;;;0.80;99.90;;;;;;5032106;28;20072;-79
2022/01/08 00:22:57;;;;;;;1.10;1.10;;;0.80;99.90;;;;;;5047831;28;20068;-80
2022/01/08 00:25:22;;;;;;;3.13;2.33;;;0.90;99.90;;;;;;5043609;28;20398;-80
2022/01/08 00:27:48;;;;;;;2.72;1.85;;;0.80;99.90;;;;;;5047851;28;20048;-79
2022/01/08 00:30:14;;;;;;;1.30;1.20;;;0.90;99.90;;;;;;5033949;28;20048;-78
2022/01/08 00:32:40;;;;;;;1.17;1.10;;;1.00;99.90;;;;;;5043468;28;20076;-81
2022/01/08 00:35:08;;;;;;;1.98;1.48;;;1.00;99.90;;;;;;5048459;28;20045;-79
2022/01/08 00:37:37;;;;;;;1.73;1.25;;;1.00;99.90;;;;;;5046883;28;20159;-80
2022/01/08 00:40:04;;;;;;;5.85;2.05;;;1.00;99.90;;;;;;5030219;28;20057;-81
2022/01/08 00:42:30;;;;;;;1.08;0.98;;;1.00;99.90;;;;;;5059450;28;20053;-80
2022/01/08 00:44:55;;;;;;;0.90;0.90;;;1.00;99.90;;;;;;5035469;28;20037;-80
2022/01/08 00:47:21;;;;;;;1.13;1.02;;;1.10;99.90;;;;;;5044999;28;20110;-79
2022/01/08 00:49:47;;;;;;;1.55;1.00;;;1.10;99.90;;;;;;5049351;28;20102;-81
2022/01/08 00:52:13;;;;;;;0.98;0.98;;;1.10;99.90;;;;;;5050752;28;20041;-79
2022/01/08 00:54:38;;;;;;;1.48;1.38;;;1.00;99.90;;;;;;5049538;28;20041;-78
2022/01/08 00:57:05;;;;;;;1.80;1.70;;;0.90;99.90;;;;;;5051321;28;20076;-79
2022/01/08 00:59:30;;;;;;;1.23;1.13;;;0.80;99.90;;;;;;5050384;28;20052;-79
2022/01/08 01:01:56;;;;;;;1.25;1.15;;;0.80;99.90;;;;;;5034690;28;20045;-79
2022/01/08 01:04:22;;;;;;;2.33;1.27;;;0.80;99.90;;;;;;5049154;28;20044;-79
2022/01/08 01:06:48;;;;;;;3.65;1.42;;;0.70;99.90;;;;;;5052798;28;20038;-77
2022/01/08 01:09:14;;;;;;;0.90;0.90;;;0.70;99.90;;;;;;5043266;28;20114;-80
2022/01/08 01:11:40;;;;;;;1.80;1.38;;;0.70;99.90;;;;;;5047565;28;20052;-80
2022/01/08 01:14:06;;;;;;;1.30;1.20;;;0.70;99.90;;;;;;5047667;28;20406;-79
2022/01/08 01:16:32;;;;;;;1.17;1.08;;;0.80;99.90;;;;;;5034515;28;20046;-79
2022/01/08 01:19:00;;;;;;;2.20;2.00;;;0.80;99.90;;;;;;5033861;28;20398;-78
2022/01/08 01:21:25;;;;;;;1.08;0.98;;;0.90;99.90;;;;;;5051012;28;20367;-80
2022/01/08 01:23:52;;;;;;;2.78;1.58;;;0.80;99.90;;;;;;5013579;28;20045;-78
2022/01/08 01:26:22;;;;;;;1.58;1.35;;;0.90;99.90;;;;;;5050396;28;20047;-81
2022/01/08 01:28:57;;;;;;;2.75;1.92;;;0.90;99.90;;;;;;5070860;28;20091;-80
2022/01/08 01:47:34;;;;;;;1.58;1.35;;;0.90;99.90;;;;;;5040659;28;20574;-78
2022/01/08 01:50:00;;;;;;;1.90;1.70;;;1.00;99.90;;;;;;5042534;28;20037;-79
2022/01/08 01:52:26;;;;;;;2.42;2.13;;;0.90;99.90;;;;;;5050215;28;20045;-79
2022/01/08 01:54:51;;;;;;;3.28;1.90;;;1.00;99.90;;;;;;5047466;28;20056;-79
2022/01/08 01:57:19;;;;;;;1.83;1.58;;;1.00;99.90;;;;;;5066952;28;20056;-78
2022/01/08 01:59:45;;;;;;;1.27;1.10;;;1.00;99.90;;;;;;5046595;28;20052;-79
2022/01/08 02:02:11;;;;;;;2.60;1.75;;;1.10;99.90;;;;;;5033933;28;20049;-78
2022/01/08 02:04:36;;;;;;;2.42;1.77;;;1.10;99.90;;;;;;5045276;28;20094;-79
2022/01/08 02:07:03;;;;;;;4.55;1.35;;;1.00;99.90;;;;;;5049552;28;20056;-80
2022/01/08 02:09:28;;;;;;;;;;;1.10;99.90;;;;;;5048513;28;20041;-80
2022/01/08 02:12:17;;;;;;;2.58;2.03;;;1.10;99.90;;;;;;5028904;28;19917;-79
2022/01/08 02:14:45;;;;;;;1.52;1.40;;;1.00;99.90;;;;;;5055474;28;20041;-78
2022/01/08 02:17:11;;;;;;;1.52;1.42;;;1.10;99.90;;;;;;5044042;28;20549;-79
2022/01/08 02:19:38;;;;;;;2.58;1.48;;;1.00;99.90;;;;;;5046094;28;20049;-78
2022/01/08 02:22:05;;;;;;;1.42;1.33;;;1.10;99.90;;;;;;5026683;28;20041;-78
2022/01/08 02:24:31;;;;;;;1.58;1.40;;;1.10;99.90;;;;;;5034406;28;20041;-79
2022/01/08 02:26:57;;;;;;;6.47;1.30;;;1.20;99.90;;;;;;5042277;28;20506;-78
2022/01/08 02:29:25;;;;;;;2.00;1.63;;;1.20;99.90;;;;;;5050505;28;20124;-79
2022/01/08 02:32:06;;;;;;;1.60;1.15;;;1.20;99.90;;;;;;5045147;28;20053;-78
2022/01/08 02:34:32;;;;;;;1.27;1.17;;;1.10;99.90;;;;;;5033196;28;20371;-80
2022/01/08 02:36:59;;;;;;;;;;;1.10;99.90;;;;;;5048928;28;20041;-79
2022/01/08 02:39:37;;;;;;;2.40;1.40;;;1.10;99.90;;;;;;5049831;28;19928;-79
2022/01/08 02:42:04;;;;;;;1.95;1.48;;;1.00;99.90;;;;;;5044202;28;20132;-79
2022/01/08 02:44:29;;;;;;;1.80;1.33;;;1.00;99.90;;;;;;5045008;28;20453;-79
2022/01/08 02:46:55;;;;;;;1.23;1.13;;;0.90;99.90;;;;;;5034205;28;20124;-77
2022/01/08 02:49:23;;;;;;;1.30;1.00;;;0.90;99.90;;;;;;5026370;28;20037;-79
2022/01/08 02:51:50;;;;;;;1.63;1.17;;;0.90;99.90;;;;;;5043301;28;20522;-78
2022/01/08 02:54:16;;;;;;;2.42;1.65;;;0.80;99.90;;;;;;5028776;28;20382;-78
2022/01/08 02:56:44;;;;;;;1.48;1.33;;;0.90;99.90;;;;;;5045466;28;20042;-81
2022/01/08 02:59:12;;;;;;;0.93;0.93;;;0.90;99.90;;;;;;5046594;28;20463;-79
2022/01/08 03:01:37;;;;;;;1.30;1.20;;;0.90;99.90;;;;;;5049152;28;20416;-78
2022/01/08 03:04:05;;;;;;;1.77;1.40;;;1.00;99.90;;;;;;5046492;28;20102;-78
2022/01/08 03:06:31;;;;;;;2.47;1.05;;;1.00;99.90;;;;;;5046264;28;20402;-80
2022/01/08 03:08:56;;;;;;;;;;;0.90;99.90;;;;;;5047384;28;20041;-77
2022/01/08 03:11:22;;;;;;;1.13;0.98;;;0.90;99.90;;;;;;5031127;28;20369;-78
2022/01/08 03:13:48;;;;;;;1.30;1.20;;;0.90;99.90;;;;;;5046172;28;20049;-78
2022/01/08 03:16:14;;;;;;;0.90;0.90;;;0.80;99.90;;;;;;5047297;28;20209;-79
2022/01/08 03:18:41;;;;;;;1.08;1.02;;;0.80;99.90;;;;;;5047776;28;20045;-76
2022/01/08 03:21:15;;;;;;;1.45;1.30;;;0.70;99.90;;;;;;5046388;28;20048;-79
2022/01/08 03:23:50;;;;;;;2.00;1.17;;;0.70;99.90;;;;;;5043630;28;20041;-79
2022/01/08 03:26:18;;;;;;;2.58;1.50;;;0.60;99.90;;;;;;5029659;28;20876;-78
2022/01/08 03:28:44;;;;;;;0.85;0.85;;;0.60;99.90;;;;;;5047027;28;20087;-79
2022/01/08 03:31:10;;;;;;;;;;;0.60;99.90;;;;;;5050548;28;20094;-79
2022/01/08 03:33:36;;;;;;;1.75;1.48;;;0.50;99.90;;;;;;5045911;28;19920;-80
2022/01/08 03:36:04;;;;;;;2.38;1.27;;;0.50;99.90;;;;;;5047957;28;20451;-79
2022/01/08 03:38:30;;;;;;;1.45;1.35;;;0.50;99.90;;;;;;5030789;28;20475;-79
2022/01/08 03:40:56;;;;;;;1.08;1.08;;;0.40;99.90;;;;;;5031665;28;20053;-78
2022/01/08 03:43:22;;;;;;;;;;;0.40;99.90;;;;;;5047196;28;20047;-78
2022/01/08 03:45:48;;;;;;;0.80;0.80;;;0.40;99.90;;;;;;5060925;28;19917;-79
2022/01/08 03:48:26;;;;;;;0.82;0.82;;;0.40;99.90;;;;;;5048512;28;20075;-79
2022/01/08 03:50:52;;;;;;;2.53;1.52;;;0.40;99.90;;;;;;5045986;28;20115;-79
2022/01/08 03:53:17;;;;;;;1.13;1.08;;;0.40;99.90;;;;;;5050837;28;20521;-79
2022/01/08 03:55:43;;;;;;;1.67;1.58;;;0.30;99.90;;;;;;5031202;28;20037;-79
2022/01/08 03:58:09;;;;;;;1.25;1.15;;;0.30;99.90;;;;;;5065934;28;20037;-78
2022/01/08 04:00:35;;;;;;;1.25;1.15;;;0.30;99.90;;;;;;5049016;28;20135;-78
2022/01/08 04:03:01;;;;;;;0.90;0.90;;;0.30;99.90;;;;;;5045237;28;20045;-78
2022/01/08 04:05:27;;;;;;;2.10;1.48;;;0.40;99.90;;;;;;5049212;28;20045;-78
2022/01/08 04:07:52;;;;;;;2.53;1.38;;;0.40;99.90;;;;;;5046469;28;20129;-78
2022/01/08 04:10:18;;;;;;;5.93;1.50;;;0.40;99.90;;;;;;5046203;28;20073;-79
2022/01/08 04:12:49;;;;;;;1.98;1.27;;;0.40;99.90;;;;;;5048317;28;20041;-79
2022/01/08 04:17:50;;;;;;;4.45;1.88;;;0.50;99.90;;;;;;5029063;28;20075;-79
2022/01/08 04:20:16;;;;;;;0.90;0.90;;;0.50;99.90;;;;;;5047916;28;20049;-78
2022/01/08 04:22:48;;;;;;;1.20;0.90;;;0.50;99.90;;;;;;5045934;28;20060;-79
2022/01/08 04:25:15;;;;;;;0.80;0.80;;;0.50;99.90;;;;;;5046958;28;20937;-80
2022/01/08 04:27:41;;;;;;;0.80;0.80;;;0.40;99.90;;;;;;5047933;28;20092;-79
2022/01/08 04:30:07;;;;;;;1.00;0.95;;;0.50;99.90;;;;;;5059638;28;20069;-79
2022/01/08 04:32:32;;;;;;;;;;;0.50;99.90;;;;;;5051128;28;20041;-78
2022/01/08 04:34:58;;;;;;;2.10;1.42;;;0.50;99.90;;;;;;5049034;28;19924;-80
2022/01/08 04:37:24;;;;;;;1.00;1.00;;;0.50;99.90;;;;;;5075012;28;20421;-78
2022/01/08 04:39:50;;;;;;;;;;;0.60;99.90;;;;;;5043961;28;20505;-80
2022/01/08 04:42:16;;;;;;;3.13;1.17;;;0.70;99.90;;;;;;5047815;28;19967;-79
2022/01/08 04:44:42;;;;;;;0.90;0.90;;;0.80;99.90;;;;;;5066876;28;20043;-79
2022/01/08 04:47:07;;;;;;;1.90;1.80;;;0.90;99.90;;;;;;5047291;28;20045;-79
2022/01/08 04:49:33;;;;;;;1.08;1.08;;;1.00;99.90;;;;;;5048146;28;20120;-79
2022/01/08 04:52:00;;;;;;;1.27;1.17;;;1.00;99.90;;;;;;5045398;28;20044;-80
2022/01/08 04:54:26;;;;;;;1.70;1.23;;;1.10;99.90;;;;;;5044818;28;20032;-79
2022/01/08 04:56:52;;;;;;;1.20;1.10;;;1.20;99.90;;;;;;5032330;28;20037;-79
2022/01/08 04:59:18;;;;;;;1.58;1.48;;;1.30;99.90;;;;;;5031980;28;20099;-79
2022/01/08 05:01:44;;;;;;;5.15;1.48;;;1.30;99.90;;;;;;5027782;28;20090;-79
2022/01/08 05:04:10;;;;;;;0.95;0.95;;;1.30;99.90;;;;;;5048760;28;20033;-80
2022/01/08 05:06:36;;;;;;;;;;;1.20;99.90;;;;;;5040775;28;20461;-80
2022/01/08 05:09:03;;;;;;;1.00;0.95;;;1.20;99.90;;;;;;5051964;28;20011;-78
2022/01/08 05:11:28;;;;;;;1.75;1.25;;;1.20;99.90;;;;;;5047150;28;20065;-79
2022/01/08 05:13:55;;;;;;;11.50;1.23;;;1.30;99.90;;;;;;5048117;28;20435;-78
2022/01/08 05:16:22;;;;;;;6.32;1.17;;;1.10;99.90;;;;;;5046941;28;20044;-79
2022/01/08 05:18:50;;;;;;;2.10;1.10;;;1.10;99.90;;;;;;5047892;28;20041;-79
2022/01/08 05:23:48;;;;;;;1.02;1.02;;;1.00;99.90;;;;;;5040828;28;20409;-79
2022/01/08 05:26:14;;;;;;;1.40;1.17;;;1.00;99.90;;;;;;5045229;28;20052;-79
2022/01/08 05:28:40;;;;;;;1.05;0.90;;;0.90;99.90;;;;;;5030695;28;20413;-79
2022/01/08 05:31:06;;;;;;;;;;;0.90;99.90;;;;;;5047281;28;20052;-80
2022/01/08 05:33:32;;;;;;;4.18;1.25;;;0.80;99.90;;;;;;5043626;28;20362;-79
2022/01/08 05:35:57;;;;;;;1.45;1.35;;;0.80;99.90;;;;;;5028211;28;20402;-80
2022/01/08 05:38:23;;;;;;;0.95;0.95;;;2.40;99.90;;;;;;5015869;28;20068;-80
2022/01/08 05:40:49;;;;;;;1.20;1.10;;;0.70;99.90;;;;;;5048934;28;20053;-79
2022/01/08 05:43:15;;;;;;;0.80;0.80;;;0.70;99.90;;;;;;5034579;28;20044;-80
2022/01/08 05:45:41;;;;;;;1.63;1.00;;;0.70;99.90;;;;;;5045040;28;20034;-79
2022/01/08 05:48:08;;;;;;;0.75;0.75;;;0.60;99.90;;;;;;5026514;28;20095;-79
2022/01/08 05:50:34;;;;;;;0.85;0.82;;;0.60;99.90;;;;;;5044325;28;20410;-80
2022/01/08 05:52:59;;;;;;;1.60;1.50;;;0.60;99.90;;;;;;5046677;28;20071;-79
2022/01/08 05:55:25;;;;;;;0.80;0.80;;;0.70;99.90;;;;;;5049133;28;20401;-79
2022/01/08 05:57:51;;;;;;;1.23;1.10;;;0.80;99.90;;;;;;5011443;28;20094;-80
2022/01/08 06:00:17;;;;;;;1.48;1.38;;;0.60;99.90;;;;;;5043858;28;20041;-79
2022/01/08 06:02:42;;;;;;;7.05;2.05;;;0.60;99.90;;;;;;5029348;28;20041;-80
2022/01/08 06:05:09;;;;;;;0.88;0.88;;;0.60;99.90;;;;;;5046627;28;20100;-80
2022/01/08 06:07:35;;;;;;;4.32;1.40;;;0.70;99.90;;;;;;5030060;28;20032;-79
2022/01/08 06:10:01;;;;;;;8.63;1.30;;;0.70;99.90;;;;;;5044923;28;20582;-79
2022/01/08 06:12:27;;;;;;;;;;;0.70;99.90;;;;;;5032915;28;20068;-79
2022/01/08 06:14:52;;;;;;;1.17;1.08;;;0.60;99.90;;;;;;5044704;28;20017;-80
2022/01/08 06:17:18;;;;;;;1.35;1.25;;;0.60;99.90;;;;;;5027898;28;20086;-79
2022/01/08 06:19:44;;;;;;;0.90;0.90;;;0.50;99.90;;;;;;5077536;28;20052;-79
2022/01/08 06:22:10;;;;;;;1.33;1.23;;;0.40;99.90;;;;;;5029304;28;20127;-79
2022/01/08 06:24:36;;;;;;;1.10;1.00;;;0.40;99.90;;;;;;5012927;28;20044;-80
2022/01/08 06:27:02;;;;;;;0.98;0.95;;;0.40;99.90;;;;;;5054955;28;20110;-79
2022/01/08 06:29:28;;;;;;;5.05;1.67;;;0.30;99.90;;;;;;5045169;28;20045;-79
2022/01/08 06:31:54;;;;;;;1.75;1.45;;;0.30;99.90;;;;;;5016445;28;20041;-79
2022/01/08 06:34:20;;;;;;;1.55;1.20;;;0.30;99.90;;;;;;5044578;28;20070;-79
2022/01/08 06:36:47;;;;;;;2.92;1.75;;;0.30;99.90;;;;;;5045989;28;20529;-79
2022/01/08 06:39:16;;;;;;;4.82;1.40;;;0.30;99.90;;;;;;5027936;28;20099;-80
2022/01/08 06:41:42;;;;;;;1.85;1.58;;;0.40;99.90;;;;;;5040967;28;20049;-81
2022/01/08 06:44:08;;;;;;;1.75;1.50;;;0.40;99.90;;;;;;5045539;28;20043;-80
2022/01/08 06:46:34;;;;;;;4.57;2.35;;;0.40;99.90;;;;;;5031724;28;20473;-80
2022/01/08 06:49:00;;;;;;;2.17;2.03;;;0.40;99.90;;;;;;5063206;28;20056;-81
2022/01/08 06:51:26;;;;;;;;;;;0.40;99.90;;;;;;5044181;28;20191;-80
2022/01/08 06:53:52;;;;;;;2.15;1.50;;;0.40;99.90;;;;;;5044412;28;20039;-81
2022/01/08 06:56:18;;;;;;;1.35;1.25;;;0.30;99.90;;;;;;5037826;28;20079;-80
2022/01/08 06:58:45;;;;;;;0.95;0.95;;;0.30;99.90;;;;;;5030754;28;20077;-80
2022/01/08 07:01:12;;;;;;;5.53;1.60;;;0.30;99.90;;;;;;5023867;28;20064;-81
2022/01/08 07:03:38;;;;;;;2.80;2.40;;;0.20;99.90;;;;;;5052116;28;20375;-80
2022/01/08 07:06:04;;;;;;;4.75;2.67;;;0.20;99.90;;;;;;5036444;28;20047;-80
2022/01/08 07:08:30;;;;;;;;;;;0.20;99.90;;;;;;5036755;28;20091;-80
2022/01/08 07:10:55;;;;;;;3.50;2.08;;;0.10;99.90;;;;;;5048751;28;19948;-81
2022/01/08 07:13:21;;;;;;;4.28;2.15;;;0.10;99.90;;;;;;5045139;28;20091;-80
2022/01/08 07:15:47;;;;;;;2.83;2.17;;;0.20;99.90;;;;;;5054221;28;20053;-81
2022/01/08 07:18:13;;;;;;;1.88;1.77;;;0.20;99.90;;;;;;5050751;28;20056;-81
2022/01/08 07:20:38;;;;;;;2.10;1.88;;;0.20;99.90;;;;;;5040080;28;20486;-81
2022/01/08 07:23:04;;;;;;;2.97;2.72;;;0.20;99.90;;;;;;5054017;28;20112;-80
2022/01/08 07:25:30;;;;;;;1.58;1.48;;;0.20;99.90;;;;;;5042944;28;20478;-80
2022/01/08 07:27:56;;;;;;;4.50;2.20;;;0.30;99.90;;;;;;5053029;28;20105;-81
2022/01/08 07:30:22;;;;;;;6.18;2.38;;;0.30;99.90;;;;;;5048572;28;20033;-80
2022/01/08 07:32:52;;;;;;;1.85;1.75;;;0.30;99.90;;;;;;5052324;28;20045;-80
2022/01/08 07:35:21;;;;;;;2.63;1.70;;;0.40;99.90;;;;;;5042602;28;20486;-81
2022/01/08 07:37:52;;;;;;;3.83;1.92;;;0.40;99.90;;;;;;5051592;28;20037;-80
2022/01/08 07:40:18;;;;;;;1.50;1.40;;;0.40;99.90;;;;;;5052540;28;20071;-80
2022/01/08 07:42:44;;;;;;;2.97;2.00;;;0.40;99.90;;;;;;5025821;28;20079;-80
2022/01/08 07:45:12;;;;;;;7.30;3.47;;;0.40;99.90;;;;;;5050274;28;20045;-80
2022/01/08 07:47:38;;;;;;;3.13;1.70;;;0.40;99.90;;;;;;5036735;28;20051;-80
2022/01/08 07:50:06;;;;;;;2.80;2.60;;;0.40;99.90;;;;;;5047135;28;20049;-80
2022/01/08 07:52:33;;;;;;;4.18;2.88;;;0.40;99.90;;;;;;5045414;28;20195;-80
2022/01/08 07:54:59;;;;;;;19.60;2.25;;;0.40;99.90;;;;;;5049229;28;20107;-80
2022/01/08 07:57:24;;;;;;;;;;;0.40;99.90;;;;;;5048962;28;20041;-80
2022/01/08 07:59:50;;;;;;;4.18;2.22;;;0.50;99.90;;;;;;5052850;28;19970;-80
2022/01/08 08:02:16;;;;;;;12.27;2.83;;;0.60;99.90;;;;;;5052744;28;20044;-80
2022/01/08 08:04:41;;;;;;;3.22;2.88;;;0.50;99.90;;;;;;5047678;28;20116;-80
2022/01/08 08:07:07;;;;;;;4.88;2.40;;;0.50;99.90;;;;;;5030761;28;20040;-80
2022/01/08 08:09:33;;;;;;;2.55;1.95;;;0.50;99.90;;;;;;5051554;28;20393;-80
2022/01/08 08:11:59;;;;;;;2.58;1.92;;;0.50;99.90;;;;;;5035138;28;20045;-80
2022/01/08 08:14:25;;;;;;;8.90;3.10;;;0.50;99.90;;;;;;5045248;28;20098;-80
2022/01/08 08:16:51;;;;;;;2.50;1.75;;;0.50;99.90;;;;;;5047688;28;20548;-81
2022/01/08 08:19:17;;;;;;;;;;;0.40;99.90;;;;;;5041172;28;20045;-81
2022/01/08 08:21:43;;;;;;;2.67;2.33;;;0.50;99.90;;;;;;5076529;28;20001;-80
2022/01/08 08:24:08;;;;;;;;;;;0.50;99.90;;;;;;5042880;28;20430;-80
2022/01/08 08:26:35;;;;;;;2.10;1.65;;;0.50;99.90;;;;;;5047129;28;19916;-81
2022/01/08 08:29:02;;;;;;;4.93;2.25;;;0.60;99.90;;;;;;5047740;28;20033;-81
2022/01/08 08:31:28;;;;;;;1.50;1.23;;;0.70;99.90;;;;;;5042591;28;20033;-80
2022/01/08 08:33:53;;;;;;;2.42;2.22;;;0.70;99.90;;;;;;5051047;28;20559;-80
2022/01/08 08:36:19;;;;;;;2.58;1.95;;;0.70;99.90;;;;;;5049371;28;20032;-80
2022/01/08 08:38:45;;;;;;;3.92;1.75;;;0.80;99.90;;;;;;5049456;28;20139;-79
2022/01/08 08:41:11;;;;;;;2.45;1.88;;;0.80;99.90;;;;;;5042191;28;20050;-80
2022/01/08 08:43:37;;;;;;;4.28;2.40;;;0.90;99.90;;;;;;5051378;28;20674;-80
2022/01/08 08:46:03;;;;;;;2.67;2.42;;;0.90;99.90;;;;;;5035105;28;20041;-81
2022/01/08 08:48:29;;;;;;;2.65;2.15;;;0.90;99.90;;;;;;5046259;28;20040;-81
2022/01/08 08:50:55;;;;;;;2.35;2.15;;;1.00;99.90;;;;;;5055356;28;20489;-81
2022/01/08 08:53:21;;;;;;;1.23;1.08;;;1.00;99.90;;;;;;5047021;28;20052;-82
2022/01/08 08:55:48;;;;;;;4.95;2.60;;;1.10;99.90;;;;;;5051289;28;20501;-81
2022/01/08 08:58:15;;;;;;;1.88;1.67;;;1.10;99.90;;;;;;5048565;28;20060;-81
2022/01/08 09:00:41;;;;;;;1.92;1.25;;;1.10;99.90;;;;;;5059732;28;20560;-80
2022/01/08 09:03:07;;;;;;;1.27;1.13;;;1.10;99.90;;;;;;5053257;28;20398;-80
2022/01/08 09:05:33;;;;;;;1.58;1.48;;;1.20;99.90;;;;;;5055864;28;20159;-81
2022/01/08 09:07:59;;;;;;;5.35;2.03;;;1.20;99.90;;;;;;5047965;28;20037;-81
2022/01/08 09:10:25;;;;;;;2.72;1.95;;;1.20;99.90;;;;;;5048541;28;20049;-80
2022/01/08 09:12:52;;;;;;;1.30;1.17;;;1.30;99.90;;;;;;5047777;28;20121;-81
2022/01/08 09:15:24;;;;;;;1.75;1.65;;;1.30;99.90;;;;;;5050496;28;20040;-81
2022/01/08 09:17:53;;;;;;;3.53;2.28;;;1.20;99.90;;;;;;5033517;28;20543;-81
2022/01/08 09:20:19;;;;;;;3.17;2.03;;;1.30;99.90;;;;;;5050676;28;20045;-81
2022/01/08 09:22:45;;;;;;;2.38;1.35;;;1.30;99.90;;;;;;5051932;28;20461;-82
2022/01/08 09:25:11;;;;;;;1.50;1.40;;;1.40;99.90;;;;;;5042835;28;20124;-81
2022/01/08 09:27:37;;;;;;;1.20;1.10;;;1.40;99.90;;;;;;5029434;28;20372;-81
2022/01/08 09:30:05;;;;;;;1.63;1.25;;;1.50;99.90;;;;;;5042939;28;20048;-81
2022/01/08 09:32:31;;;;;;;3.92;1.75;;;1.60;99.90;;;;;;5033806;28;20033;-81
2022/01/08 09:34:56;;;;;;;3.28;2.97;;;1.60;99.90;;;;;;5049166;28;20508;-81
2022/01/08 09:37:22;;;;;;;1.70;1.38;;;1.70;99.90;;;;;;5044638;28;20045;-79
2022/01/08 09:39:48;;;;;;;2.35;1.95;;;1.80;99.90;;;;;;5033674;28;20052;-80
2022/01/08 09:42:14;;;;;;;1.60;1.50;;;1.80;99.90;;;;;;5054244;28;20045;-78
2022/01/08 09:44:44;;;;;;;7.43;1.48;;;1.90;99.90;;;;;;5032239;28;20071;-78
2022/01/08 09:47:11;;;;;;;1.98;1.30;;;1.90;99.90;;;;;;5044765;28;20053;-78
2022/01/08 09:49:38;;;;;;;4.47;1.98;;;1.90;99.90;;;;;;5045372;28;20037;-79
2022/01/08 09:52:04;;;;;;;3.05;2.67;;;2.00;99.90;;;;;;5050650;28;20071;-79
2022/01/08 09:54:31;;;;;;;3.42;2.30;;;2.00;99.90;;;;;;5051293;28;20644;-79
2022/01/08 09:56:57;;;;;;;1.77;1.67;;;2.00;99.90;;;;;;5031161;28;20067;-79
2022/01/08 09:59:24;;;;;;;3.75;1.70;;;2.00;99.90;;;;;;5047141;28;20057;-79
2022/01/08 10:02:00;;;;;;;2.63;1.20;;;2.10;99.90;;;;;;5050956;28;20037;-79
2022/01/08 10:04:28;;;;;;;3.30;2.50;;;2.20;99.90;;;;;;5030816;28;20108;-78
2022/01/08 10:07:16;;;;;;;3.08;1.67;;;2.30;99.90;;;;;;5047274;28;20038;-79
2022/01/08 10:10:11;;;;;;;3.05;1.80;;;2.40;99.90;;;;;;5048902;28;20095;-78
2022/01/08 10:12:43;;;;;;;5.20;1.67;;;2.50;99.90;;;;;;5066825;28;20226;-78
2022/01/08 10:17:55;;;;;;;2.22;1.33;;;2.60;99.90;;;;;;5047029;28;20049;-80
2022/01/08 10:20:37;;;;;;;1.60;1.33;;;2.60;99.90;;;;;;5050925;28;20124;-79
2022/01/08 10:23:13;;;;;;;2.20;1.60;;;2.90;99.90;;;;;;5050154;28;20052;-81
2022/01/08 10:25:54;;;;;;;1.75;1.20;;;2.70;99.90;;;;;;5049457;28;20445;-81
2022/01/08 10:28:48;;;;;;;2.10;1.90;;;2.70;99.90;;;;;;5012945;28;20481;-79
2022/01/08 10:31:28;;;;;;;2.60;1.73;;;2.80;99.90;;;;;;5050067;28;20109;-77
2022/01/08 10:34:05;;;;;;;5.75;1.50;;;2.80;99.90;;;;;;5034825;28;20069;-80
2022/01/08 10:36:47;;;;;;;2.53;1.63;;;2.80;99.90;;;;;;5049055;28;20032;-78
2022/01/08 10:39:20;;;;;;;3.25;2.00;;;2.90;99.90;;;;;;5066587;28;20049;-78
2022/01/08 10:41:48;;;;;;;1.75;1.15;;;2.90;99.90;;;;;;5030081;28;20459;-80
2022/01/08 10:44:15;;;;;;;4.18;1.20;;;2.90;99.90;;;;;;5059027;28;20055;-78
2022/01/08 10:47:05;;;;;;;1.92;1.75;;;2.90;99.90;;;;;;5066423;28;20398;-79
2022/01/08 10:49:40;;;;;;;2.95;2.00;;;2.90;99.90;;;;;;5040807;28;20083;-80
2022/01/08 10:52:17;;;;;;;2.00;1.60;;;2.90;99.90;;;;;;5039966;28;20459;-79
2022/01/08 10:54:47;;;;;;;3.67;2.03;;;2.90;99.90;;;;;;5038203;28;20057;-79
2022/01/08 10:57:14;;;;;;;3.05;1.70;;;2.90;99.90;;;;;;5050510;28;20494;-80
2022/01/08 10:59:41;;;;;;;2.97;1.92;;;2.90;99.90;;;;;;5050331;28;20080;-79
2022/01/08 11:02:17;;;;;;;8.93;2.20;;;2.90;99.90;;;;;;5049509;28;20096;-81
2022/01/08 11:04:47;;;;;;;6.25;2.05;;;2.80;99.90;;;;;;5044058;28;20417;-80
2022/01/08 11:07:17;;;;;;;2.22;1.63;;;2.80;99.90;;;;;;5034118;28;20045;-80
2022/01/08 11:09:45;;;;;;;3.08;1.98;;;2.80;99.90;;;;;;5049106;28;20033;-81
2022/01/08 11:12:16;;;;;;;13.27;2.88;;;2.70;99.90;;;;;;5014862;28;20390;-78
2022/01/08 11:15:00;;;;;;;3.25;2.33;;;2.80;99.90;;;;;;5044027;28;20051;-80
2022/01/08 11:17:39;;;;;;;3.20;2.30;;;2.80;99.90;;;;;;5067285;28;20047;-79
2022/01/08 11:20:10;;;;;;;2.83;2.28;;;2.80;99.90;;;;;;5033752;28;20045;-80
2022/01/08 11:22:39;;;;;;;2.20;2.00;;;2.80;99.90;;;;;;5050394;28;20053;-79
2022/01/08 11:25:09;;;;;;;16.75;2.97;;;2.80;99.90;;;;;;5047761;28;20072;-81
2022/01/08 11:27:39;;;;;;;6.78;2.40;;;2.80;99.90;;;;;;5029744;28;20040;-80
2022/01/08 11:30:10;;;;;;;6.90;3.00;;;2.90;99.90;;;;;;5030460;28;20345;-80
2022/01/08 11:32:37;;;;;;;8.30;2.58;;;2.90;99.90;;;;;;5031830;28;20053;-80
2022/01/08 11:35:06;;;;;;;2.63;2.33;;;3.00;99.90;;;;;;5031174;28;20053;-81
2022/01/08 11:37:32;;;;;;;3.17;2.85;;;3.10;99.90;;;;;;5051150;28;20109;-81
2022/01/08 11:40:02;;;;;;;13.18;3.00;;;3.10;99.90;;;;;;5045751;28;20562;-80
2022/01/08 11:42:31;;;;;;;1.70;1.58;;;3.10;99.90;;;;;;5051406;28;20057;-84
2022/01/08 11:45:00;;;;;;;3.38;2.53;;;3.20;99.90;;;;;;5051779;28;20052;-83
2022/01/08 11:47:29;;;;;;;5.60;2.90;;;3.20;99.90;;;;;;5053115;28;20382;-79
2022/01/08 11:49:58;;;;;;;4.25;2.60;;;3.30;99.90;;;;;;5045639;28;20053;-80
2022/01/08 11:52:24;;;;;;;2.75;2.30;;;3.40;99.90;;;;;;5050794;28;20121;-82
2022/01/08 11:54:55;;;;;;;6.68;2.92;;;3.40;99.90;;;;;;5073309;28;20126;-79
2022/01/08 11:57:22;;;;;;;7.88;2.85;;;3.30;99.90;;;;;;5051949;28;20048;-81
2022/01/08 11:59:49;;;;;;;2.85;2.03;;;3.40;99.90;;;;;;5040152;28;20512;-78
2022/01/08 12:02:16;;;;;;;3.42;2.50;;;3.40;99.90;;;;;;5054820;28;20048;-81
2022/01/08 12:04:47;;;;;;;5.28;3.25;;;3.40;99.90;;;;;;5036578;28;20076;-81
2022/01/08 12:07:39;;;;;;;4.60;2.85;;;3.40;99.90;;;;;;5053568;28;20114;-80
2022/01/08 12:10:20;;;;;;;3.80;1.60;;;3.50;99.90;;;;;;5060373;28;20072;-82
2022/01/08 12:12:47;;;;;;;3.75;2.25;;;3.40;99.90;;;;;;5044451;28;20490;-78
2022/01/08 12:15:14;;;;;;;9.57;4.47;;;3.40;99.90;;;;;;5053908;28;20511;-78
2022/01/08 12:17:57;;;;;;;4.70;3.22;;;3.40;99.90;;;;;;5054638;28;20121;-78
2022/01/08 12:20:44;;;;;;;4.70;2.38;;;3.40;99.90;;;;;;5049458;28;20041;-78
2022/01/08 12:23:32;;;;;;;6.15;2.17;;;3.40;99.90;;;;;;5050493;28;20040;-77
2022/01/08 12:26:02;;;;;;;2.88;2.03;;;3.40;99.90;;;;;;5043537;28;20053;-81
2022/01/08 12:28:46;;;;;;;3.00;2.22;;;3.40;99.90;;;;;;5041139;28;20053;-80
2022/01/08 12:31:42;;;;;;;3.45;2.75;;;3.40;99.90;;;;;;5044333;28;20053;-79
2022/01/08 12:34:27;;;;;;;4.10;2.65;;;3.50;99.90;;;;;;5046598;28;20063;-80
2022/01/08 12:37:04;;;;;;;5.57;3.03;;;3.50;99.90;;;;;;5068319;28;20045;-79
2022/01/08 12:39:43;;;;;;;6.50;3.90;;;3.60;99.90;;;;;;5049767;28;20105;-82
2022/01/08 12:42:23;;;;;;;6.07;4.20;;;3.60;99.90;;;;;;5052550;28;20049;-80
2022/01/08 12:45:11;;;;;;;4.15;3.08;;;3.60;99.90;;;;;;5045794;28;20041;-80
2022/01/08 12:47:51;;;;;;;9.13;4.40;;;3.60;99.90;;;;;;5046607;28;20175;-80
2022/01/08 12:50:35;;;;;;;5.68;3.85;;;3.60;99.90;;;;;;5050638;28;20041;-81
2022/01/08 12:53:06;;;;;;;5.32;3.30;;;3.60;99.90;;;;;;5049902;28;20041;-81
2022/01/08 12:55:38;;;;;;;3.97;3.58;;;3.60;99.90;;;;;;5051972;28;20041;-81
2022/01/08 12:58:12;;;;;;;4.63;3.40;;;3.60;99.90;;;;;;5035580;28;20747;-78
2022/01/08 13:01:11;;;;;;;7.85;3.55;;;3.50;99.90;;;;;;5044226;28;20513;-81
2022/01/08 13:03:48;;;;;;;5.05;3.60;;;3.50;99.90;;;;;;5048811;28;20045;-81
2022/01/08 13:06:14;;;;;;;5.47;3.30;;;3.50;99.90;;;;;;5048237;28;20049;-80
2022/01/08 13:08:41;;;;;;;;;;;3.60;99.90;;;;;;5051735;28;20068;-80
2022/01/08 13:11:09;;;;;;;7.35;3.67;;;3.60;99.90;;;;;;5033011;28;20019;-79
2022/01/08 13:13:43;;;;;;;4.95;3.03;;;3.60;99.90;;;;;;5050422;28;20465;-80
2022/01/08 13:16:12;;;;;;;7.72;3.83;;;3.60;99.90;;;;;;5052687;28;20082;-79
2022/01/08 13:18:39;;;;;;;4.38;2.97;;;3.60;99.90;;;;;;5030855;28;20058;-81
2022/01/08 13:21:09;;;;;;;5.88;3.67;;;3.80;99.90;;;;;;5028576;28;20044;-79
2022/01/08 13:23:50;;;;;;;3.80;3.10;;;3.60;99.90;;;;;;5045618;28;20048;-80
2022/01/08 13:26:26;;;;;;;4.38;3.83;;;3.60;99.90;;;;;;5074656;28;20367;-82
2022/01/08 13:28:52;;;;;;;9.40;4.20;;;3.60;99.90;;;;;;5049521;28;20041;-79
2022/01/08 13:31:18;;;;;;;6.75;4.50;;;3.60;99.90;;;;;;5051201;28;20041;-79